Koleen, Indiana
Current Conditions -  °F | °C
As of 11:53 AM on Tuesday 21 Oct 2014 (Local Time) from KBMG Reporting Station
Overcast Overcast  
Wind Chill: 54°   Ceiling: 3300
Heat Index: 54°   Visibility: 10mi
Dew Point: 45°   Wind: 10mph
Humidity: 72%   Direction: 10°N
Pressure: 30.09"   Gusts: NA
Location:  38.97°N, 86.83°W
Report Text: KBMG 211553Z 01009KT 10SM FEW025 BKN033 OVC048 12/07 A3009 RMK AO2 SLP190 T01220072 $
Loading
Personal Weather Stations






























Interactive Weather Map
Tropical Storm Tracking
New forecast layout! Learn more

10-Day Weather Forecast

Advertisements
Track Severe Weather on mobile